Time,TemperatureF,DewpointF,PressureIn,WindDirection,WindDirectionDegrees,WindSpeedMPH,WindSpeedGustMPH,Humidity,HourlyPrecipIn,Conditions,Clouds,dailyrainin,SoftwareType,DateUTC
2013-03-27 00:00:00,36.5,28.4,30.02,WNW,292,0.0,2.0,72,0.00,,---,0.00,VWS V14.01,2013-03-27 04:00:00,
2013-03-27 00:05:00,36.2,28.4,30.02,WNW,292,0.0,2.0,73,0.00,,---,0.00,VWS V14.01,2013-03-27 04:05:00,
2013-03-27 00:10:00,36.0,28.2,30.01,WNW,292,1.0,2.0,73,0.00,,---,0.00,VWS V14.01,2013-03-27 04:10:00,
2013-03-27 00:15:00,35.8,28.0,30.01,WSW,248,1.0,3.0,73,0.00,,---,0.00,VWS V14.01,2013-03-27 04:15:00,
2013-03-27 00:20:00,35.6,27.8,30.01,WSW,248,0.0,1.0,73,0.00,,---,0.00,VWS V14.01,2013-03-27 04:20:00,
2013-03-27 00:25:00,35.5,28.0,30.02,WSW,248,1.0,2.0,74,0.00,,---,0.00,VWS V14.01,2013-03-27 04:25:00,
2013-03-27 00:30:00,35.3,27.9,30.02,WNW,292,1.0,6.0,74,0.00,,---,0.00,VWS V14.01,2013-03-27 04:30:00,
2013-03-27 00:35:00,35.5,28.0,30.01,WSW,248,1.0,4.0,74,0.00,,---,0.00,VWS V14.01,2013-03-27 04:35:00,
2013-03-27 00:40:00,35.6,27.8,30.01,WNW,292,2.0,4.0,73,0.00,,---,0.00,VWS V14.01,2013-03-27 04:40:00,
2013-03-27 00:45:00,36.3,27.8,30.01,NW,315,3.0,9.0,71,0.00,,---,0.00,VWS V14.01,2013-03-27 04:45:00,
2013-03-27 00:50:00,36.6,28.1,30.01,WNW,292,3.0,7.0,71,0.00,,---,0.00,VWS V14.01,2013-03-27 04:50:00,
2013-03-27 00:55:00,36.9,27.7,30.01,WNW,292,2.0,4.0,69,0.00,,---,0.00,VWS V14.01,2013-03-27 04:55:00,
2013-03-27 01:00:00,37.0,27.8,30.01,West,270,3.0,6.0,69,0.00,,---,0.00,VWS V14.01,2013-03-27 05:00:00,
2013-03-27 01:05:00,37.0,27.8,30.01,West,270,2.0,6.0,69,0.00,,---,0.00,VWS V14.01,2013-03-27 05:05:00,
2013-03-27 01:10:00,36.9,27.7,30.01,West,270,3.0,7.0,69,0.00,,---,0.00,VWS V14.01,2013-03-27 05:10:00,
2013-03-27 01:15:00,36.9,27.3,30.01,WNW,292,3.0,6.0,68,0.00,,---,0.00,VWS V14.01,2013-03-27 05:15:00,
2013-03-27 01:20:00,36.9,27.3,30.01,WNW,292,2.0,4.0,68,0.00,,---,0.00,VWS V14.01,2013-03-27 05:20:00,
2013-03-27 01:25:00,36.8,27.2,30.02,WNW,292,2.0,4.0,68,0.00,,---,0.00,VWS V14.01,2013-03-27 05:25:00,
2013-03-27 01:30:00,36.6,27.4,30.01,NW,315,4.0,12.0,69,0.00,,---,0.00,VWS V14.01,2013-03-27 05:30:00,
2013-03-27 01:35:00,36.8,27.2,30.01,NW,315,4.0,10.0,68,0.00,,---,0.00,VWS V14.01,2013-03-27 05:35:00,
2013-03-27 01:40:00,36.9,27.3,30.01,NW,315,5.0,13.0,68,0.00,,---,0.00,VWS V14.01,2013-03-27 05:40:00,
2013-03-27 01:45:00,36.9,27.3,30.01,NW,315,3.0,7.0,68,0.00,,---,0.00,VWS V14.01,2013-03-27 05:45:00,
2013-03-27 01:50:00,37.0,27.4,30.01,NW,315,4.0,11.0,68,0.00,,---,0.00,VWS V14.01,2013-03-27 05:50:00,
2013-03-27 01:55:00,37.0,27.8,30.01,WNW,292,4.0,10.0,69,0.00,,---,0.00,VWS V14.01,2013-03-27 05:55:00,
2013-03-27 02:00:00,36.9,27.7,30.01,NW,315,3.0,7.0,69,0.00,,---,0.00,VWS V14.01,2013-03-27 06:00:00,
2013-03-27 02:05:00,36.9,27.7,30.01,WNW,292,4.0,10.0,69,0.00,,---,0.00,VWS V14.01,2013-03-27 06:05:00,
2013-03-27 02:10:00,36.8,27.6,30.01,NW,315,3.0,10.0,69,0.00,,---,0.00,VWS V14.01,2013-03-27 06:10:00,
2013-03-27 02:15:00,36.6,27.4,30.01,NW,315,3.0,5.0,69,0.00,,---,0.00,VWS V14.01,2013-03-27 06:15:00,
2013-03-27 02:20:00,36.5,27.3,30.01,NW,315,4.0,9.0,69,0.00,,---,0.00,VWS V14.01,2013-03-27 06:20:00,
2013-03-27 02:25:00,36.5,27.3,30.01,NW,315,3.0,6.0,69,0.00,,---,0.00,VWS V14.01,2013-03-27 06:25:00,
2013-03-27 02:30:00,36.5,27.3,30.01,WNW,292,3.0,8.0,69,0.00,,---,0.00,VWS V14.01,2013-03-27 06:30:00,
2013-03-27 02:35:00,36.3,27.1,30.01,NW,315,4.0,8.0,69,0.00,,---,0.00,VWS V14.01,2013-03-27 06:35:00,
2013-03-27 02:40:00,36.3,26.8,30.01,NW,315,4.0,9.0,68,0.00,,---,0.00,VWS V14.01,2013-03-27 06:40:00,
2013-03-27 02:45:00,36.3,26.8,30.01,NW,315,4.0,11.0,68,0.00,,---,0.00,VWS V14.01,2013-03-27 06:45:00,
2013-03-27 02:50:00,36.3,26.8,30.01,NW,315,4.0,7.0,68,0.00,,---,0.00,VWS V14.01,2013-03-27 06:50:00,
2013-03-27 02:55:00,36.2,27.0,30.01,NW,315,3.0,5.0,69,0.00,,---,0.00,VWS V14.01,2013-03-27 06:55:00,
2013-03-27 03:00:00,36.0,26.8,30.01,NW,315,3.0,8.0,69,0.00,,---,0.00,VWS V14.01,2013-03-27 07:00:00,
2013-03-27 03:05:00,36.0,26.5,30.01,NW,315,4.0,9.0,68,0.00,,---,0.00,VWS V14.01,2013-03-27 07:05:00,
2013-03-27 03:10:00,36.0,26.5,30.01,NW,315,3.0,7.0,68,0.00,,---,0.00,VWS V14.01,2013-03-27 07:10:00,
2013-03-27 03:15:00,35.9,26.4,30.01,NW,315,4.0,10.0,68,0.00,,---,0.00,VWS V14.01,2013-03-27 07:15:00,
2013-03-27 03:20:00,36.0,26.5,30.01,NW,315,4.0,9.0,68,0.00,,---,0.00,VWS V14.01,2013-03-27 07:20:00,
2013-03-27 03:25:00,36.2,26.3,30.01,WNW,292,3.0,9.0,67,0.00,,---,0.00,VWS V14.01,2013-03-27 07:25:00,
2013-03-27 03:30:00,36.2,26.3,30.01,NW,315,4.0,10.0,67,0.00,,---,0.00,VWS V14.01,2013-03-27 07:30:00,
2013-03-27 03:35:00,36.3,26.4,30.00,WNW,292,5.0,11.0,67,0.00,,---,0.00,VWS V14.01,2013-03-27 07:35:00,
2013-03-27 03:40:00,36.3,26.4,30.00,NW,315,4.0,10.0,67,0.00,,---,0.00,VWS V14.01,2013-03-27 07:40:00,
2013-03-27 03:45:00,36.3,26.0,30.01,NW,315,5.0,16.0,66,0.00,,---,0.00,VWS V14.01,2013-03-27 07:45:00,
2013-03-27 03:50:00,36.3,26.0,30.01,NW,315,4.0,11.0,66,0.00,,---,0.00,VWS V14.01,2013-03-27 07:50:00,
2013-03-27 03:55:00,36.3,26.4,30.01,NW,315,4.0,10.0,67,0.00,,---,0.00,VWS V14.01,2013-03-27 07:55:00,
2013-03-27 04:00:00,36.3,26.0,30.01,WNW,292,6.0,15.0,66,0.00,,---,0.00,VWS V14.01,2013-03-27 08:00:00,
2013-03-27 04:05:00,36.3,26.4,30.00,WNW,292,5.0,11.0,67,0.00,,---,0.00,VWS V14.01,2013-03-27 08:05:00,
2013-03-27 04:10:00,36.2,26.3,30.00,WNW,292,6.0,13.0,67,0.00,,---,0.00,VWS V14.01,2013-03-27 08:10:00,
2013-03-27 04:15:00,36.0,26.5,30.00,WNW,292,5.0,13.0,68,0.00,,---,0.00,VWS V14.01,2013-03-27 08:15:00,
2013-03-27 04:20:00,36.0,26.5,30.00,WNW,292,5.0,11.0,68,0.00,,---,0.00,VWS V14.01,2013-03-27 08:20:00,
2013-03-27 04:25:00,36.0,26.5,30.00,WNW,292,6.0,16.0,68,0.00,,---,0.00,VWS V14.01,2013-03-27 08:25:00,
2013-03-27 04:30:00,36.0,26.5,30.00,WNW,292,7.0,17.0,68,0.00,,---,0.00,VWS V14.01,2013-03-27 08:30:00,
2013-03-27 04:35:00,36.0,26.5,30.00,NW,315,6.0,15.0,68,0.00,,---,0.00,VWS V14.01,2013-03-27 08:35:00,
2013-03-27 04:40:00,35.9,26.0,30.00,NW,315,5.0,11.0,67,0.00,,---,0.00,VWS V14.01,2013-03-27 08:40:00,
2013-03-27 04:45:00,35.9,26.4,30.00,WNW,292,5.0,12.0,68,0.00,,---,0.00,VWS V14.01,2013-03-27 08:45:00,
2013-03-27 04:50:00,35.9,26.0,30.00,WNW,292,6.0,12.0,67,0.00,,---,0.00,VWS V14.01,2013-03-27 08:50:00,
2013-03-27 04:55:00,35.9,26.0,30.00,WNW,292,6.0,14.0,67,0.00,,---,0.00,VWS V14.01,2013-03-27 08:55:00,
2013-03-27 05:00:00,35.9,26.0,30.00,WNW,292,5.0,13.0,67,0.00,,---,0.00,VWS V14.01,2013-03-27 09:00:00,
2013-03-27 05:05:00,35.9,26.0,30.01,WNW,292,5.0,11.0,67,0.00,,---,0.00,VWS V14.01,2013-03-27 09:05:00,
2013-03-27 05:10:00,35.8,25.9,30.01,WNW,292,6.0,14.0,67,0.00,,---,0.00,VWS V14.01,2013-03-27 09:10:00,
2013-03-27 05:15:00,35.8,25.9,30.01,WNW,292,4.0,10.0,67,0.00,,---,0.00,VWS V14.01,2013-03-27 09:15:00,
2013-03-27 05:20:00,35.8,25.6,30.01,WNW,292,7.0,14.0,66,0.00,,---,0.00,VWS V14.01,2013-03-27 09:20:00,
2013-03-27 05:25:00,35.9,25.7,30.01,WNW,292,5.0,12.0,66,0.00,,---,0.00,VWS V14.01,2013-03-27 09:25:00,
2013-03-27 05:30:00,35.8,25.6,30.01,NW,315,4.0,9.0,66,0.00,,---,0.00,VWS V14.01,2013-03-27 09:30:00,
2013-03-27 05:35:00,35.6,25.4,30.02,WNW,292,5.0,15.0,66,0.00,,---,0.00,VWS V14.01,2013-03-27 09:35:00,
2013-03-27 05:40:00,35.6,25.0,30.02,WNW,292,4.0,9.0,65,0.00,,---,0.00,VWS V14.01,2013-03-27 09:40:00,
2013-03-27 05:45:00,35.6,24.6,30.02,WNW,292,5.0,12.0,64,0.00,,---,0.00,VWS V14.01,2013-03-27 09:45:00,
2013-03-27 05:50:00,35.5,24.5,30.02,WNW,292,4.0,10.0,64,0.00,,---,0.00,VWS V14.01,2013-03-27 09:50:00,
2013-03-27 05:55:00,35.3,24.7,30.03,WNW,292,4.0,9.0,65,0.00,,---,0.00,VWS V14.01,2013-03-27 09:55:00,
2013-03-27 06:00:00,35.2,24.3,30.03,West,270,4.0,10.0,64,0.00,,---,0.00,VWS V14.01,2013-03-27 10:00:00,
2013-03-27 06:05:00,35.2,23.9,30.03,WNW,292,5.0,14.0,63,0.00,,---,0.00,VWS V14.01,2013-03-27 10:05:00,
2013-03-27 06:10:00,35.2,24.3,30.03,WNW,292,4.0,9.0,64,0.00,,---,0.00,VWS V14.01,2013-03-27 10:10:00,
2013-03-27 06:15:00,35.2,23.9,30.03,West,270,5.0,8.0,63,0.00,,---,0.00,VWS V14.01,2013-03-27 10:15:00,
2013-03-27 06:20:00,35.0,24.1,30.03,West,270,4.0,11.0,64,0.00,,---,0.00,VWS V14.01,2013-03-27 10:20:00,
2013-03-27 06:25:00,34.9,24.0,30.03,West,270,4.0,9.0,64,0.00,,---,0.00,VWS V14.01,2013-03-27 10:25:00,
2013-03-27 06:30:00,34.7,23.8,30.03,West,270,4.0,7.0,64,0.00,,---,0.00,VWS V14.01,2013-03-27 10:30:00,
2013-03-27 06:35:00,34.7,23.8,30.03,West,270,4.0,7.0,64,0.00,,---,0.00,VWS V14.01,2013-03-27 10:35:00,
2013-03-27 06:40:00,34.7,23.4,30.03,West,270,4.0,9.0,63,0.00,,---,0.00,VWS V14.01,2013-03-27 10:40:00,
2013-03-27 06:45:00,34.9,23.6,30.03,WNW,292,3.0,8.0,63,0.00,,---,0.00,VWS V14.01,2013-03-27 10:45:00,
2013-03-27 06:50:00,34.9,23.6,30.04,NW,315,4.0,12.0,63,0.00,,---,0.00,VWS V14.01,2013-03-27 10:50:00,
2013-03-27 06:55:00,35.0,23.3,30.04,WNW,292,4.0,10.0,62,0.00,,---,0.00,VWS V14.01,2013-03-27 10:55:00,
2013-03-27 07:00:00,35.0,23.7,30.04,West,270,3.0,7.0,63,0.00,,---,0.00,VWS V14.01,2013-03-27 11:00:00,
2013-03-27 07:05:00,34.9,23.6,30.04,WNW,292,4.0,10.0,63,0.00,,---,0.00,VWS V14.01,2013-03-27 11:05:00,
2013-03-27 07:10:00,35.0,23.7,30.04,WNW,292,4.0,12.0,63,0.00,,---,0.00,VWS V14.01,2013-03-27 11:10:00,
2013-03-27 07:15:00,35.0,23.7,30.04,WNW,292,3.0,7.0,63,0.00,,---,0.00,VWS V14.01,2013-03-27 11:15:00,
2013-03-27 07:20:00,34.9,24.0,30.04,WNW,292,3.0,10.0,64,0.00,,---,0.00,VWS V14.01,2013-03-27 11:20:00,
2013-03-27 07:25:00,35.2,23.5,30.04,West,270,5.0,13.0,62,0.00,,---,0.00,VWS V14.01,2013-03-27 11:25:00,
2013-03-27 07:30:00,35.2,23.9,30.05,West,270,3.0,5.0,63,0.00,,---,0.00,VWS V14.01,2013-03-27 11:30:00,
2013-03-27 07:35:00,35.0,24.1,30.05,West,270,1.0,3.0,64,0.00,,---,0.00,VWS V14.01,2013-03-27 11:35:00,
2013-03-27 07:40:00,34.9,24.3,30.06,WNW,292,2.0,4.0,65,0.00,,---,0.00,VWS V14.01,2013-03-27 11:40:00,
2013-03-27 07:45:00,34.9,24.0,30.06,NW,315,3.0,8.0,64,0.00,,---,0.00,VWS V14.01,2013-03-27 11:45:00,
2013-03-27 07:50:00,34.9,24.0,30.06,WNW,292,2.0,6.0,64,0.00,,---,0.00,VWS V14.01,2013-03-27 11:50:00,
2013-03-27 07:55:00,35.0,24.1,30.06,WNW,292,5.0,10.0,64,0.00,,---,0.00,VWS V14.01,2013-03-27 11:55:00,
2013-03-27 08:00:00,35.3,24.4,30.06,WNW,292,2.0,7.0,64,0.00,,---,0.00,VWS V14.01,2013-03-27 12:00:00,
2013-03-27 08:05:00,35.3,24.4,30.06,WNW,292,3.0,6.0,64,0.00,,---,0.00,VWS V14.01,2013-03-27 12:05:00,
2013-03-27 08:10:00,35.3,24.7,30.06,WNW,292,3.0,7.0,65,0.00,,---,0.00,VWS V14.01,2013-03-27 12:10:00,
2013-03-27 08:15:00,35.6,24.3,30.07,WNW,292,4.0,11.0,63,0.00,,---,0.00,VWS V14.01,2013-03-27 12:15:00,
2013-03-27 08:20:00,35.9,24.9,30.07,NW,315,4.0,11.0,64,0.00,,---,0.00,VWS V14.01,2013-03-27 12:20:00,
2013-03-27 08:25:00,36.3,25.3,30.07,NW,315,5.0,14.0,64,0.00,,---,0.00,VWS V14.01,2013-03-27 12:25:00,
2013-03-27 08:30:00,36.9,25.1,30.07,WNW,292,4.0,7.0,62,0.00,,---,0.00,VWS V14.01,2013-03-27 12:30:00,
2013-03-27 08:35:00,37.2,25.4,30.07,WNW,292,2.0,6.0,62,0.00,,---,0.00,VWS V14.01,2013-03-27 12:35:00,
2013-03-27 08:40:00,37.5,25.7,30.07,NW,315,4.0,10.0,62,0.00,,---,0.00,VWS V14.01,2013-03-27 12:40:00,
2013-03-27 08:45:00,37.8,26.0,30.07,NW,315,3.0,6.0,62,0.00,,---,0.00,VWS V14.01,2013-03-27 12:45:00,
2013-03-27 08:50:00,38.2,26.3,30.07,NW,315,3.0,10.0,62,0.00,,---,0.00,VWS V14.01,2013-03-27 12:50:00,
2013-03-27 08:55:00,38.8,26.1,30.07,NW,315,3.0,12.0,60,0.00,,---,0.00,VWS V14.01,2013-03-27 12:55:00,
2013-03-27 09:00:00,39.3,27.0,30.08,West,270,4.0,10.0,61,0.00,,---,0.00,VWS V14.01,2013-03-27 13:00:00,
2013-03-27 09:05:00,39.9,26.8,30.08,WNW,292,6.0,15.0,59,0.00,,---,0.00,VWS V14.01,2013-03-27 13:05:00,
2013-03-27 09:10:00,40.2,27.0,30.08,NW,315,5.0,13.0,59,0.00,,---,0.00,VWS V14.01,2013-03-27 13:10:00,
2013-03-27 09:15:00,40.5,26.9,30.08,WNW,292,5.0,13.0,58,0.00,,---,0.00,VWS V14.01,2013-03-27 13:15:00,
2013-03-27 09:20:00,40.5,26.5,30.08,WNW,292,5.0,12.0,57,0.00,,---,0.00,VWS V14.01,2013-03-27 13:20:00,
2013-03-27 09:25:00,40.8,27.2,30.08,NW,315,5.0,12.0,58,0.00,,---,0.00,VWS V14.01,2013-03-27 13:25:00,
2013-03-27 09:30:00,40.9,26.9,30.08,NW,315,4.0,7.0,57,0.00,,---,0.00,VWS V14.01,2013-03-27 13:30:00,
2013-03-27 09:35:00,40.8,26.8,30.08,NW,315,7.0,17.0,57,0.00,,---,0.00,VWS V14.01,2013-03-27 13:35:00,
2013-03-27 09:40:00,40.3,26.3,30.08,NW,315,6.0,13.0,57,0.00,,---,0.00,VWS V14.01,2013-03-27 13:40:00,
2013-03-27 09:45:00,40.2,26.6,30.08,NW,315,6.0,15.0,58,0.00,,---,0.00,VWS V14.01,2013-03-27 13:45:00,
2013-03-27 09:50:00,40.1,26.9,30.08,NW,315,6.0,14.0,59,0.00,,---,0.00,VWS V14.01,2013-03-27 13:50:00,
2013-03-27 09:55:00,40.2,26.2,30.08,NW,315,7.0,18.0,57,0.00,,---,0.00,VWS V14.01,2013-03-27 13:55:00,
2013-03-27 10:00:00,40.6,27.0,30.08,NW,315,6.0,14.0,58,0.00,,---,0.00,VWS V14.01,2013-03-27 14:00:00,
2013-03-27 10:05:00,40.8,26.8,30.08,NW,315,8.0,19.0,57,0.00,,---,0.00,VWS V14.01,2013-03-27 14:05:00,
2013-03-27 10:10:00,41.1,27.0,30.08,WNW,292,7.0,17.0,57,0.00,,---,0.00,VWS V14.01,2013-03-27 14:10:00,
2013-03-27 10:15:00,41.5,27.4,30.08,NW,315,6.0,15.0,57,0.00,,---,0.00,VWS V14.01,2013-03-27 14:15:00,
2013-03-27 10:20:00,41.6,27.1,30.08,NW,315,7.0,15.0,56,0.00,,---,0.00,VWS V14.01,2013-03-27 14:20:00,
2013-03-27 10:25:00,41.6,26.6,30.08,WNW,292,7.0,16.0,55,0.00,,---,0.00,VWS V14.01,2013-03-27 14:25:00,
2013-03-27 10:30:00,41.8,27.7,30.08,NW,315,5.0,12.0,57,0.00,,---,0.00,VWS V14.01,2013-03-27 14:30:00,
2013-03-27 10:35:00,42.2,27.6,30.08,WNW,292,7.0,16.0,56,0.00,,---,0.00,VWS V14.01,2013-03-27 14:35:00,
2013-03-27 10:40:00,42.5,27.9,30.09,NW,315,5.0,11.0,56,0.00,,---,0.00,VWS V14.01,2013-03-27 14:40:00,
2013-03-27 10:45:00,42.6,27.6,30.09,NW,315,7.0,17.0,55,0.00,,---,0.00,VWS V14.01,2013-03-27 14:45:00,
2013-03-27 10:50:00,42.8,27.3,30.09,NW,315,4.0,11.0,54,0.00,,---,0.00,VWS V14.01,2013-03-27 14:50:00,
2013-03-27 10:55:00,42.9,27.4,30.09,NW,315,3.0,8.0,54,0.00,,---,0.00,VWS V14.01,2013-03-27 14:55:00,
2013-03-27 11:00:00,43.1,28.0,30.09,NW,315,4.0,11.0,55,0.00,,---,0.00,VWS V14.01,2013-03-27 15:00:00,
2013-03-27 11:05:00,42.9,27.0,30.09,NW,315,5.0,9.0,53,0.00,,---,0.00,VWS V14.01,2013-03-27 15:05:00,
2013-03-27 11:10:00,42.6,27.1,30.08,NW,315,6.0,14.0,54,0.00,,---,0.00,VWS V14.01,2013-03-27 15:10:00,
2013-03-27 11:15:00,42.3,26.9,30.09,NW,315,5.0,11.0,54,0.00,,---,0.00,VWS V14.01,2013-03-27 15:15:00,
2013-03-27 11:20:00,42.3,26.4,30.09,NW,315,6.0,12.0,53,0.00,,---,0.00,VWS V14.01,2013-03-27 15:20:00,
2013-03-27 11:25:00,42.8,27.3,30.08,NW,315,5.0,13.0,54,0.00,,---,0.00,VWS V14.01,2013-03-27 15:25:00,
2013-03-27 11:30:00,43.3,27.8,30.08,WNW,292,7.0,17.0,54,0.00,,---,0.00,VWS V14.01,2013-03-27 15:30:00,
2013-03-27 11:35:00,43.5,28.0,30.08,WNW,292,5.0,12.0,54,0.00,,---,0.00,VWS V14.01,2013-03-27 15:35:00,
2013-03-27 11:40:00,44.1,28.1,30.09,WNW,292,7.0,17.0,53,0.00,,---,0.00,VWS V14.01,2013-03-27 15:40:00,
2013-03-27 11:45:00,44.5,29.4,30.08,NW,315,5.0,12.0,55,0.00,,---,0.00,VWS V14.01,2013-03-27 15:45:00,
2013-03-27 11:50:00,45.1,28.5,30.08,NW,315,6.0,13.0,52,0.00,,---,0.00,VWS V14.01,2013-03-27 15:50:00,
2013-03-27 11:55:00,44.6,28.1,30.08,NW,315,5.0,9.0,52,0.00,,---,0.00,VWS V14.01,2013-03-27 15:55:00,
2013-03-27 12:00:00,44.2,27.7,30.09,NW,315,5.0,14.0,52,0.00,,---,0.00,VWS V14.01,2013-03-27 16:00:00,
2013-03-27 12:05:00,43.2,28.1,30.09,NW,315,7.0,14.0,55,0.00,,---,0.00,VWS V14.01,2013-03-27 16:05:00,
2013-03-27 12:10:00,42.8,27.8,30.09,West,270,6.0,13.0,55,0.00,,---,0.00,VWS V14.01,2013-03-27 16:10:00,
2013-03-27 12:15:00,42.6,27.6,30.09,WNW,292,4.0,14.0,55,0.00,,---,0.00,VWS V14.01,2013-03-27 16:15:00,
2013-03-27 12:20:00,42.6,28.5,30.09,West,270,9.0,19.0,57,0.00,,---,0.00,VWS V14.01,2013-03-27 16:20:00,
2013-03-27 12:25:00,42.8,28.2,30.08,West,270,6.0,12.0,56,0.00,,---,0.00,VWS V14.01,2013-03-27 16:25:00,
2013-03-27 12:30:00,43.1,28.5,30.09,NW,315,5.0,13.0,56,0.00,,---,0.00,VWS V14.01,2013-03-27 16:30:00,
2013-03-27 12:35:00,43.1,28.0,30.09,NW,315,5.0,13.0,55,0.00,,---,0.00,VWS V14.01,2013-03-27 16:35:00,
2013-03-27 12:40:00,42.9,27.4,30.09,NW,315,5.0,13.0,54,0.00,,---,0.00,VWS V14.01,2013-03-27 16:40:00,
2013-03-27 12:45:00,42.6,27.6,30.09,NW,315,5.0,15.0,55,0.00,,---,0.00,VWS V14.01,2013-03-27 16:45:00,
2013-03-27 12:50:00,42.8,28.2,30.09,NW,315,3.0,9.0,56,0.00,,---,0.00,VWS V14.01,2013-03-27 16:50:00,
2013-03-27 12:55:00,43.1,26.7,30.09,NW,315,6.0,12.0,52,0.00,,---,0.00,VWS V14.01,2013-03-27 16:55:00,
2013-03-27 13:00:00,43.1,27.6,30.09,NW,315,5.0,11.0,54,0.00,,---,0.00,VWS V14.01,2013-03-27 17:00:00,
2013-03-27 13:05:00,43.3,27.8,30.08,NW,315,5.0,10.0,54,0.00,,---,0.00,VWS V14.01,2013-03-27 17:05:00,
2013-03-27 13:10:00,43.6,28.5,30.08,NW,315,4.0,13.0,55,0.00,,---,0.00,VWS V14.01,2013-03-27 17:10:00,
2013-03-27 13:15:00,43.9,27.4,30.08,WNW,292,6.0,18.0,52,0.00,,---,0.00,VWS V14.01,2013-03-27 17:15:00,
2013-03-27 13:20:00,44.1,27.1,30.08,NW,315,6.0,17.0,51,0.00,,---,0.00,VWS V14.01,2013-03-27 17:20:00,
2013-03-27 13:25:00,44.1,27.1,30.08,WNW,292,5.0,12.0,51,0.00,,---,0.00,VWS V14.01,2013-03-27 17:25:00,
2013-03-27 13:30:00,43.9,27.4,30.08,WNW,292,6.0,12.0,52,0.00,,---,0.00,VWS V14.01,2013-03-27 17:30:00,
2013-03-27 13:35:00,43.8,26.9,30.08,WNW,292,7.0,16.0,51,0.00,,---,0.00,VWS V14.01,2013-03-27 17:35:00,
2013-03-27 13:40:00,43.5,26.1,30.08,NW,315,5.0,12.0,50,0.00,,---,0.00,VWS V14.01,2013-03-27 17:40:00,
2013-03-27 13:45:00,43.8,27.3,30.08,NW,315,3.0,6.0,52,0.00,,---,0.00,VWS V14.01,2013-03-27 17:45:00,
2013-03-27 13:50:00,44.1,27.6,30.08,NW,315,5.0,10.0,52,0.00,,---,0.00,VWS V14.01,2013-03-27 17:50:00,
2013-03-27 13:55:00,44.3,26.9,30.08,NW,315,5.0,11.0,50,0.00,,---,0.00,VWS V14.01,2013-03-27 17:55:00,
2013-03-27 14:00:00,44.6,27.6,30.08,NW,315,4.0,11.0,51,0.00,,---,0.00,VWS V14.01,2013-03-27 18:00:00,
2013-03-27 14:05:00,44.5,27.0,30.08,NW,315,6.0,12.0,50,0.00,,---,0.00,VWS V14.01,2013-03-27 18:05:00,
2013-03-27 14:10:00,44.2,27.7,30.08,NW,315,6.0,14.0,52,0.00,,---,0.00,VWS V14.01,2013-03-27 18:10:00,
2013-03-27 14:15:00,43.5,28.0,30.08,WNW,292,8.0,17.0,54,0.00,,---,0.00,VWS V14.01,2013-03-27 18:15:00,
2013-03-27 14:20:00,43.9,28.8,30.09,WNW,292,9.0,18.0,55,0.00,,---,0.00,VWS V14.01,2013-03-27 18:20:00,
2013-03-27 14:25:00,44.1,28.5,30.09,NW,315,7.0,12.0,54,0.00,,---,0.00,VWS V14.01,2013-03-27 18:25:00,
2013-03-27 14:30:00,43.5,31.0,30.09,NNW,338,4.0,12.0,61,0.00,,---,0.00,VWS V14.01,2013-03-27 18:30:00,
2013-03-27 14:35:00,42.2,32.0,30.10,NW,315,6.0,14.0,67,0.00,,---,0.00,VWS V14.01,2013-03-27 18:35:00,
2013-03-27 14:40:00,40.9,32.9,30.09,North,0,3.0,11.0,73,0.00,,---,0.00,VWS V14.01,2013-03-27 18:40:00,
2013-03-27 14:45:00,40.6,34.0,30.09,NW,315,3.0,10.0,77,0.00,,---,0.00,VWS V14.01,2013-03-27 18:45:00,
2013-03-27 14:50:00,41.1,33.1,30.09,NW,315,4.0,11.0,73,0.00,,---,0.00,VWS V14.01,2013-03-27 18:50:00,
2013-03-27 14:55:00,41.8,32.8,30.09,NW,315,4.0,9.0,70,0.00,,---,0.00,VWS V14.01,2013-03-27 18:55:00,
2013-03-27 15:00:00,42.8,31.5,30.08,WNW,292,4.0,7.0,64,0.00,,---,0.00,VWS V14.01,2013-03-27 19:00:00,
2013-03-27 15:05:00,43.8,28.7,30.08,NW,315,6.0,21.0,55,0.00,,---,0.00,VWS V14.01,2013-03-27 19:05:00,
2013-03-27 15:10:00,44.1,28.1,30.08,NW,315,8.0,17.0,53,0.00,,---,0.00,VWS V14.01,2013-03-27 19:10:00,
2013-03-27 15:15:00,43.9,27.9,30.08,West,270,10.0,20.0,53,0.00,,---,0.00,VWS V14.01,2013-03-27 19:15:00,
2013-03-27 15:20:00,43.8,27.8,30.08,NW,315,8.0,16.0,53,0.00,,---,0.00,VWS V14.01,2013-03-27 19:20:00,
2013-03-27 15:25:00,44.1,29.0,30.08,NNW,338,5.0,11.0,55,0.00,,---,0.00,VWS V14.01,2013-03-27 19:25:00,
2013-03-27 15:30:00,44.6,28.5,30.08,NW,315,6.0,16.0,53,0.00,,---,0.00,VWS V14.01,2013-03-27 19:30:00,
2013-03-27 15:35:00,44.8,25.8,30.07,NW,315,6.0,12.0,47,0.00,,---,0.00,VWS V14.01,2013-03-27 19:35:00,
2013-03-27 15:40:00,45.1,27.1,30.07,WNW,292,6.0,15.0,49,0.00,,---,0.00,VWS V14.01,2013-03-27 19:40:00,
2013-03-27 15:45:00,45.5,26.5,30.07,NNW,338,6.0,19.0,47,0.00,,---,0.00,VWS V14.01,2013-03-27 19:45:00,
2013-03-27 15:50:00,46.1,25.4,30.07,NW,315,7.0,19.0,44,0.00,,---,0.00,VWS V14.01,2013-03-27 19:50:00,
2013-03-27 15:55:00,46.4,25.1,30.07,WNW,292,6.0,21.0,43,0.00,,---,0.00,VWS V14.01,2013-03-27 19:55:00,
2013-03-27 16:00:00,46.1,26.5,30.07,West,270,10.0,25.0,46,0.00,,---,0.00,VWS V14.01,2013-03-27 20:00:00,
2013-03-27 16:05:00,45.2,26.7,30.07,West,270,8.0,17.0,48,0.00,,---,0.00,VWS V14.01,2013-03-27 20:05:00,
2013-03-27 16:10:00,44.6,27.1,30.07,NW,315,6.0,14.0,50,0.00,,---,0.00,VWS V14.01,2013-03-27 20:10:00,
2013-03-27 16:15:00,44.2,27.2,30.07,WNW,292,6.0,13.0,51,0.00,,---,0.00,VWS V14.01,2013-03-27 20:15:00,
2013-03-27 16:20:00,44.1,28.1,30.07,WNW,292,4.0,13.0,53,0.00,,---,0.00,VWS V14.01,2013-03-27 20:20:00,
2013-03-27 16:25:00,44.1,26.7,30.07,WNW,292,6.0,14.0,50,0.00,,---,0.00,VWS V14.01,2013-03-27 20:25:00,
2013-03-27 16:30:00,44.2,28.2,30.07,West,270,9.0,17.0,53,0.00,,---,0.00,VWS V14.01,2013-03-27 20:30:00,
2013-03-27 16:35:00,43.9,29.2,30.07,West,270,6.0,15.0,56,0.00,,---,0.00,VWS V14.01,2013-03-27 20:35:00,
2013-03-27 16:40:00,43.8,27.8,30.07,West,270,9.0,24.0,53,0.00,,---,0.00,VWS V14.01,2013-03-27 20:40:00,
2013-03-27 16:45:00,43.5,28.0,30.07,NW,315,8.0,18.0,54,0.00,,---,0.00,VWS V14.01,2013-03-27 20:45:00,
2013-03-27 16:50:00,43.5,27.5,30.07,NW,315,6.0,11.0,53,0.00,,---,0.00,VWS V14.01,2013-03-27 20:50:00,
2013-03-27 16:55:00,43.9,28.4,30.07,NW,315,4.0,12.0,54,0.00,,---,0.00,VWS V14.01,2013-03-27 20:55:00,
2013-03-27 17:00:00,44.5,27.5,30.07,WNW,292,5.0,12.0,51,0.00,,---,0.00,VWS V14.01,2013-03-27 21:00:00,
2013-03-27 17:05:00,44.2,26.8,30.08,WNW,292,6.0,14.0,50,0.00,,---,0.00,VWS V14.01,2013-03-27 21:05:00,
2013-03-27 17:10:00,43.8,26.9,30.08,NW,315,7.0,13.0,51,0.00,,---,0.00,VWS V14.01,2013-03-27 21:10:00,
2013-03-27 17:15:00,43.1,27.6,30.08,WNW,292,9.0,16.0,54,0.00,,---,0.00,VWS V14.01,2013-03-27 21:15:00,
2013-03-27 17:20:00,42.2,28.9,30.08,WNW,292,9.0,17.0,59,0.00,,---,0.00,VWS V14.01,2013-03-27 21:20:00,
2013-03-27 17:25:00,41.8,29.0,30.08,WNW,292,5.0,14.0,60,0.00,,---,0.00,VWS V14.01,2013-03-27 21:25:00,
2013-03-27 17:30:00,41.9,28.2,30.08,NW,315,5.0,12.0,58,0.00,,---,0.00,VWS V14.01,2013-03-27 21:30:00,
2013-03-27 17:35:00,42.2,26.8,30.08,WNW,292,6.0,15.0,54,0.00,,---,0.00,VWS V14.01,2013-03-27 21:35:00,
2013-03-27 17:40:00,42.6,26.7,30.08,NW,315,5.0,13.0,53,0.00,,---,0.00,VWS V14.01,2013-03-27 21:40:00,
2013-03-27 17:45:00,42.9,26.5,30.08,WNW,292,5.0,15.0,52,0.00,,---,0.00,VWS V14.01,2013-03-27 21:45:00,
2013-03-27 17:50:00,43.1,26.2,30.08,NW,315,5.0,11.0,51,0.00,,---,0.00,VWS V14.01,2013-03-27 21:50:00,
2013-03-27 17:55:00,43.1,25.7,30.08,WNW,292,6.0,11.0,50,0.00,,---,0.00,VWS V14.01,2013-03-27 21:55:00,
2013-03-27 18:00:00,43.1,26.2,30.08,WNW,292,5.0,11.0,51,0.00,,---,0.00,VWS V14.01,2013-03-27 22:00:00,
2013-03-27 18:05:00,43.1,25.3,30.08,West,270,5.0,12.0,49,0.00,,---,0.00,VWS V14.01,2013-03-27 22:05:00,
2013-03-27 18:10:00,43.1,25.3,30.08,WNW,292,5.0,12.0,49,0.00,,---,0.00,VWS V14.01,2013-03-27 22:10:00,
2013-03-27 18:15:00,43.1,25.3,30.08,WNW,292,5.0,15.0,49,0.00,,---,0.00,VWS V14.01,2013-03-27 22:15:00,
2013-03-27 18:20:00,43.1,25.3,30.08,NW,315,5.0,12.0,49,0.00,,---,0.00,VWS V14.01,2013-03-27 22:20:00,
2013-03-27 18:25:00,42.9,26.0,30.09,NW,315,6.0,15.0,51,0.00,,---,0.00,VWS V14.01,2013-03-27 22:25:00,
2013-03-27 18:30:00,42.5,28.4,30.09,WNW,292,7.0,16.0,57,0.00,,---,0.00,VWS V14.01,2013-03-27 22:30:00,
2013-03-27 18:35:00,41.6,30.0,30.09,WNW,292,7.0,13.0,63,0.00,,---,0.00,VWS V14.01,2013-03-27 22:35:00,
2013-03-27 18:40:00,40.9,29.7,30.09,West,270,5.0,13.0,64,0.00,,---,0.00,VWS V14.01,2013-03-27 22:40:00,
2013-03-27 18:45:00,40.6,29.4,30.09,WNW,292,4.0,10.0,64,0.00,,---,0.00,VWS V14.01,2013-03-27 22:45:00,
2013-03-27 18:50:00,40.5,28.5,30.09,NW,315,4.0,9.0,62,0.00,,---,0.00,VWS V14.01,2013-03-27 22:50:00,
2013-03-27 18:55:00,40.6,28.2,30.09,WNW,292,3.0,6.0,61,0.00,,---,0.00,VWS V14.01,2013-03-27 22:55:00,
2013-03-27 19:00:00,40.6,27.8,30.09,WNW,292,4.0,9.0,60,0.00,,---,0.00,VWS V14.01,2013-03-27 23:00:00,
2013-03-27 19:05:00,40.6,28.2,30.09,WNW,292,3.0,6.0,61,0.00,,---,0.00,VWS V14.01,2013-03-27 23:05:00,
2013-03-27 19:10:00,40.5,28.1,30.09,WNW,292,2.0,5.0,61,0.00,,---,0.00,VWS V14.01,2013-03-27 23:10:00,
2013-03-27 19:15:00,40.3,27.5,30.09,WNW,292,3.0,7.0,60,0.00,,---,0.00,VWS V14.01,2013-03-27 23:15:00,
2013-03-27 19:20:00,40.2,27.0,30.09,WNW,292,4.0,10.0,59,0.00,,---,0.00,VWS V14.01,2013-03-27 23:20:00,
2013-03-27 19:25:00,40.2,27.4,30.09,WNW,292,3.0,9.0,60,0.00,,---,0.00,VWS V14.01,2013-03-27 23:25:00,
2013-03-27 19:35:00,39.9,27.2,30.10,WNW,292,2.0,3.0,60,0.00,,---,0.00,VWS V14.01,2013-03-27 23:35:00,
2013-03-27 19:36:00,40.2,27.4,30.09,WNW,292,3.0,9.0,60,0.00,,---,0.00,VWS V14.01,2013-03-27 23:36:00,
2013-03-27 19:40:00,39.9,26.8,30.10,WNW,290,3.0,7.0,59,0.00,,---,0.00,VWS V14.01,2013-03-27 23:40:00,
2013-03-27 19:41:00,39.9,26.8,30.10,NW,323,1.0,3.0,59,0.00,,---,0.00,VWS V14.01,2013-03-27 23:41:00,
2013-03-27 19:45:00,39.8,26.7,30.10,NW,306,4.0,7.0,59,0.00,,---,0.00,VWS V14.01,2013-03-27 23:45:00,
2013-03-27 19:46:00,39.8,26.2,30.10,West,259,2.0,4.0,58,0.00,,---,0.00,VWS V14.01,2013-03-27 23:46:00,
2013-03-27 19:50:00,39.8,26.2,30.11,WNW,300,9.0,9.0,58,0.00,,---,0.00,VWS V14.01,2013-03-27 23:50:00,
2013-03-27 19:51:00,39.8,26.2,30.10,West,279,6.0,9.0,58,0.00,,---,0.00,VWS V14.01,2013-03-27 23:51:00,
2013-03-27 19:55:00,39.9,26.3,30.11,WNW,298,5.0,9.0,58,0.00,,---,0.00,VWS V14.01,2013-03-27 23:55:00,
2013-03-27 19:56:00,39.9,26.3,30.11,NW,308,5.0,6.0,58,0.00,,---,0.00,VWS V14.01,2013-03-27 23:56:00,
2013-03-27 20:00:00,39.9,26.3,30.11,West,279,7.0,7.0,58,0.00,,---,0.00,VWS V14.01,2013-03-28 00:00:00,
2013-03-27 20:01:00,39.9,26.3,30.10,West,279,7.0,11.0,58,0.00,,---,0.00,VWS V14.01,2013-03-28 00:01:00,
2013-03-27 20:05:00,39.9,26.3,30.10,NW,322,3.0,11.0,58,0.00,,---,0.00,VWS V14.01,2013-03-28 00:05:00,
2013-03-27 20:06:00,39.9,26.8,30.10,NW,305,4.0,11.0,59,0.00,,---,0.00,VWS V14.01,2013-03-28 00:06:00,
2013-03-27 20:10:00,39.9,25.9,30.10,West,261,12.0,14.0,57,0.00,,---,0.00,VWS V14.01,2013-03-28 00:10:00,
2013-03-27 20:11:00,39.9,25.9,30.11,WNW,290,9.0,12.0,57,0.00,,---,0.00,VWS V14.01,2013-03-28 00:11:00,
2013-03-27 20:15:00,40.1,26.1,30.10,WNW,297,4.0,12.0,57,0.00,,---,0.00,VWS V14.01,2013-03-28 00:15:00,
2013-03-27 20:16:00,40.1,26.1,30.11,WNW,286,2.0,5.0,57,0.00,,---,0.00,VWS V14.01,2013-03-28 00:16:00,
2013-03-27 20:20:00,39.9,26.3,30.11,NW,313,2.0,6.0,58,0.00,,---,0.00,VWS V14.01,2013-03-28 00:20:00,
2013-03-27 20:21:00,39.8,26.2,30.11,West,275,6.0,6.0,58,0.00,,---,0.00,VWS V14.01,2013-03-28 00:21:00,
2013-03-27 20:25:00,39.6,26.5,30.11,NW,305,3.0,6.0,59,0.00,,---,0.00,VWS V14.01,2013-03-28 00:25:00,
2013-03-27 20:27:00,39.6,26.5,30.11,West,281,5.0,5.0,59,0.00,,---,0.00,VWS V14.01,2013-03-28 00:27:00,
2013-03-27 20:30:00,39.5,26.4,30.11,NW,307,6.0,7.0,59,0.00,,---,0.00,VWS V14.01,2013-03-28 00:30:00,
2013-03-27 20:32:00,39.3,26.2,30.11,NW,307,2.0,6.0,59,0.00,,---,0.00,VWS V14.01,2013-03-28 00:32:00,
2013-03-27 20:35:00,39.3,26.2,30.11,WNW,288,5.0,9.0,59,0.00,,---,0.00,VWS V14.01,2013-03-28 00:35:00,
2013-03-27 20:37:00,39.3,26.2,30.11,West,267,5.0,11.0,59,0.00,,---,0.00,VWS V14.01,2013-03-28 00:37:00,
2013-03-27 20:40:00,39.3,26.2,30.11,NW,309,4.0,11.0,59,0.00,,---,0.00,VWS V14.01,2013-03-28 00:40:00,
2013-03-27 20:42:00,39.3,26.2,30.11,WSW,255,2.0,8.0,59,0.00,,---,0.00,VWS V14.01,2013-03-28 00:42:00,
2013-03-27 20:45:00,39.2,26.1,30.11,WSW,257,5.0,8.0,59,0.00,,---,0.00,VWS V14.01,2013-03-28 00:45:00,
2013-03-27 20:47:00,39.2,26.1,30.11,WNW,290,1.0,5.0,59,0.00,,---,0.00,VWS V14.01,2013-03-28 00:47:00,
2013-03-27 20:50:00,39.1,26.4,30.11,West,274,3.0,6.0,60,0.00,,---,0.00,VWS V14.01,2013-03-28 00:50:00,
2013-03-27 20:52:00,38.9,26.2,30.11,WNW,282,4.0,5.0,60,0.00,,---,0.00,VWS V14.01,2013-03-28 00:52:00,
2013-03-27 20:55:00,38.8,26.5,30.11,WNW,287,2.0,5.0,61,0.00,,---,0.00,VWS V14.01,2013-03-28 00:55:00,
2013-03-27 20:57:00,38.8,26.5,30.11,WNW,287,4.0,6.0,61,0.00,,---,0.00,VWS V14.01,2013-03-28 00:57:00,
2013-03-27 21:00:00,38.6,26.3,30.11,WNW,300,2.0,8.0,61,0.00,,---,0.00,VWS V14.01,2013-03-28 01:00:00,
2013-03-27 21:02:00,38.6,26.3,30.11,WNW,293,2.0,8.0,61,0.00,,---,0.00,VWS V14.01,2013-03-28 01:02:00,
2013-03-27 21:05:00,38.6,26.3,30.11,West,271,5.0,8.0,61,0.00,,---,0.00,VWS V14.01,2013-03-28 01:05:00,
2013-03-27 21:07:00,38.6,26.3,30.11,WNW,286,3.0,7.0,61,0.00,,---,0.00,VWS V14.01,2013-03-28 01:07:00,
2013-03-27 21:10:00,38.6,26.3,30.11,West,277,6.0,7.0,61,0.00,,---,0.00,VWS V14.01,2013-03-28 01:10:00,
2013-03-27 21:12:00,38.5,26.2,30.11,West,270,8.0,8.0,61,0.00,,---,0.00,VWS V14.01,2013-03-28 01:12:00,
2013-03-27 21:15:00,38.5,26.2,30.11,West,279,4.0,10.0,61,0.00,,---,0.00,VWS V14.01,2013-03-28 01:15:00,
2013-03-27 21:17:00,38.5,26.2,30.12,WSW,257,4.0,9.0,61,0.00,,---,0.00,VWS V14.01,2013-03-28 01:17:00,
2013-03-27 21:20:00,38.5,26.2,30.11,NW,325,3.0,10.0,61,0.00,,---,0.00,VWS V14.01,2013-03-28 01:20:00,
2013-03-27 21:22:00,38.5,26.2,30.11,WNW,294,4.0,7.0,61,0.00,,---,0.00,VWS V14.01,2013-03-28 01:22:00,
2013-03-27 21:25:00,38.5,26.2,30.12,West,277,4.0,7.0,61,0.00,,---,0.00,VWS V14.01,2013-03-28 01:25:00,
2013-03-27 21:27:00,38.5,26.2,30.12,WNW,288,3.0,9.0,61,0.00,,---,0.00,VWS V14.01,2013-03-28 01:27:00,
2013-03-27 21:30:00,38.5,26.2,30.12,WNW,282,3.0,9.0,61,0.00,,---,0.00,VWS V14.01,2013-03-28 01:30:00,
2013-03-27 21:32:00,38.3,26.0,30.12,WSW,256,5.0,10.0,61,0.00,,---,0.00,VWS V14.01,2013-03-28 01:32:00,
2013-03-27 21:35:00,38.5,26.2,30.12,NW,311,3.0,11.0,61,0.00,,---,0.00,VWS V14.01,2013-03-28 01:35:00,
2013-03-27 21:37:00,38.5,25.8,30.12,West,259,6.0,10.0,60,0.00,,---,0.00,VWS V14.01,2013-03-28 01:37:00,
2013-03-27 21:40:00,38.3,26.0,30.12,WNW,289,2.0,10.0,61,0.00,,---,0.00,VWS V14.01,2013-03-28 01:40:00,
2013-03-27 21:42:00,38.3,26.0,30.12,NW,309,2.0,7.0,61,0.00,,---,0.00,VWS V14.01,2013-03-28 01:42:00,
2013-03-27 21:45:00,38.2,26.3,30.12,NW,309,2.0,7.0,62,0.00,,---,0.00,VWS V14.01,2013-03-28 01:45:00,
2013-03-27 21:47:00,38.2,26.0,30.12,WSW,257,7.0,10.0,61,0.00,,---,0.00,VWS V14.01,2013-03-28 01:47:00,
2013-03-27 21:50:00,38.2,26.3,30.13,NW,309,3.0,10.0,62,0.00,,---,0.00,VWS V14.01,2013-03-28 01:50:00,
2013-03-27 21:52:00,38.2,26.0,30.13,NW,317,3.0,11.0,61,0.00,,---,0.00,VWS V14.01,2013-03-28 01:52:00,
2013-03-27 21:55:00,38.2,26.0,30.13,WNW,299,3.0,11.0,61,0.00,,---,0.00,VWS V14.01,2013-03-28 01:55:00,
2013-03-27 21:57:00,38.0,25.8,30.13,West,279,2.0,6.0,61,0.00,,---,0.00,VWS V14.01,2013-03-28 01:57:00,
2013-03-27 22:00:00,38.0,25.8,30.12,West,279,3.0,9.0,61,0.00,,---,0.00,VWS V14.01,2013-03-28 02:00:00,
2013-03-27 22:02:00,38.0,26.1,30.12,WNW,286,4.0,6.0,62,0.00,,---,0.00,VWS V14.01,2013-03-28 02:02:00,
2013-03-27 22:05:00,38.0,26.1,30.12,West,268,2.0,6.0,62,0.00,,---,0.00,VWS V14.01,2013-03-28 02:05:00,
2013-03-27 22:07:00,37.9,26.1,30.12,WSW,256,4.0,6.0,62,0.00,,---,0.00,VWS V14.01,2013-03-28 02:07:00,
2013-03-27 22:10:00,37.8,26.0,30.12,West,272,2.0,9.0,62,0.00,,---,0.00,VWS V14.01,2013-03-28 02:10:00,
2013-03-27 22:12:00,37.8,26.0,30.12,West,278,4.0,5.0,62,0.00,,---,0.00,VWS V14.01,2013-03-28 02:12:00,
2013-03-27 22:15:00,37.8,26.0,30.12,West,271,4.0,7.0,62,0.00,,---,0.00,VWS V14.01,2013-03-28 02:15:00,
2013-03-27 22:17:00,37.6,25.8,30.12,WNW,295,3.0,5.0,62,0.00,,---,0.00,VWS V14.01,2013-03-28 02:17:00,
2013-03-27 22:20:00,37.8,26.0,30.12,WNW,289,3.0,10.0,62,0.00,,---,0.00,VWS V14.01,2013-03-28 02:20:00,
2013-03-27 22:22:00,37.8,26.0,30.12,West,281,7.0,7.0,62,0.00,,---,0.00,VWS V14.01,2013-03-28 02:22:00,
2013-03-27 22:25:00,37.8,26.0,30.12,NW,307,3.0,7.0,62,0.00,,---,0.00,VWS V14.01,2013-03-28 02:25:00,
2013-03-27 22:27:00,37.9,25.7,30.12,NW,307,6.0,6.0,61,0.00,,---,0.00,VWS V14.01,2013-03-28 02:27:00,
2013-03-27 22:30:00,38.0,25.8,30.12,WSW,254,4.0,6.0,61,0.00,,---,0.00,VWS V14.01,2013-03-28 02:30:00,
2013-03-27 22:32:00,38.0,26.1,30.12,NW,309,2.0,6.0,62,0.00,,---,0.00,VWS V14.01,2013-03-28 02:32:00,
2013-03-27 22:35:00,38.2,26.0,30.12,WNW,285,3.0,12.0,61,0.00,,---,0.00,VWS V14.01,2013-03-28 02:35:00,
2013-03-27 22:37:00,38.2,26.0,30.12,WNW,284,5.0,7.0,61,0.00,,---,0.00,VWS V14.01,2013-03-28 02:37:00,
2013-03-27 22:40:00,38.3,25.6,30.12,West,280,9.0,9.0,60,0.00,,---,0.00,VWS V14.01,2013-03-28 02:40:00,
2013-03-27 22:42:00,38.5,25.8,30.12,WNW,283,8.0,9.0,60,0.00,,---,0.00,VWS V14.01,2013-03-28 02:42:00,
2013-03-27 22:45:00,38.5,25.8,30.12,WNW,292,5.0,9.0,60,0.00,,---,0.00,VWS V14.01,2013-03-28 02:45:00,
2013-03-27 22:47:00,38.6,25.5,30.12,West,273,7.0,10.0,59,0.00,,---,0.00,VWS V14.01,2013-03-28 02:47:00,
2013-03-27 22:50:00,38.8,25.7,30.12,WNW,287,6.0,10.0,59,0.00,,---,0.00,VWS V14.01,2013-03-28 02:50:00,
2013-03-27 22:52:00,38.9,25.4,30.12,WNW,296,5.0,9.0,58,0.00,,---,0.00,VWS V14.01,2013-03-28 02:52:00,
2013-03-27 22:55:00,38.9,25.8,30.12,WNW,297,2.0,9.0,59,0.00,,---,0.00,VWS V14.01,2013-03-28 02:55:00,
2013-03-27 22:57:00,38.8,25.7,30.12,West,261,9.0,12.0,59,0.00,,---,0.00,VWS V14.01,2013-03-28 02:57:00,
2013-03-27 23:00:00,38.8,26.1,30.12,WNW,297,6.0,12.0,60,0.00,,---,0.00,VWS V14.01,2013-03-28 03:00:00,
2013-03-27 23:02:00,38.8,25.7,30.12,NW,306,2.0,12.0,59,0.00,,---,0.00,VWS V14.01,2013-03-28 03:02:00,
2013-03-27 23:05:00,38.6,25.5,30.12,NW,321,4.0,12.0,59,0.00,,---,0.00,VWS V14.01,2013-03-28 03:05:00,
2013-03-27 23:08:00,38.6,25.9,30.12,NNW,330,5.0,10.0,60,0.00,,---,0.00,VWS V14.01,2013-03-28 03:08:00,
2013-03-27 23:10:00,38.5,25.4,30.12,WNW,290,5.0,10.0,59,0.00,,---,0.00,VWS V14.01,2013-03-28 03:10:00,
2013-03-27 23:13:00,38.5,26.6,30.12,NW,317,9.0,9.0,62,0.00,,---,0.00,VWS V14.01,2013-03-28 03:13:00,
2013-03-27 23:15:00,38.6,25.1,30.12,NW,323,3.0,9.0,58,0.00,,---,0.00,VWS V14.01,2013-03-28 03:15:00,
2013-03-27 23:18:00,38.6,25.1,30.12,NW,306,4.0,13.0,58,0.00,,---,0.00,VWS V14.01,2013-03-28 03:18:00,
2013-03-27 23:20:00,38.6,25.1,30.12,WNW,290,3.0,13.0,58,0.00,,---,0.00,VWS V14.01,2013-03-28 03:20:00,
2013-03-27 23:23:00,38.6,25.1,30.11,WNW,303,2.0,4.0,58,0.00,,---,0.00,VWS V14.01,2013-03-28 03:23:00,
2013-03-27 23:25:00,38.6,25.1,30.12,West,263,5.0,5.0,58,0.00,,---,0.00,VWS V14.01,2013-03-28 03:25:00,
2013-03-27 23:28:00,38.6,25.1,30.12,West,279,5.0,10.0,58,0.00,,---,0.00,VWS V14.01,2013-03-28 03:28:00,
2013-03-27 23:30:00,38.6,25.1,30.11,NW,304,2.0,10.0,58,0.00,,---,0.00,VWS V14.01,2013-03-28 03:30:00,
2013-03-27 23:33:00,38.6,25.1,30.12,NW,315,2.0,8.0,58,0.00,,---,0.00,VWS V14.01,2013-03-28 03:33:00,
2013-03-27 23:35:00,38.6,25.5,30.11,West,281,2.0,8.0,59,0.00,,---,0.00,VWS V14.01,2013-03-28 03:35:00,
2013-03-27 23:38:00,38.6,24.7,30.12,NW,315,2.0,13.0,57,0.00,,---,0.00,VWS V14.01,2013-03-28 03:38:00,
2013-03-27 23:40:00,38.6,25.1,30.12,West,275,7.0,13.0,58,0.00,,---,0.00,VWS V14.01,2013-03-28 03:40:00,
2013-03-27 23:43:00,38.6,25.1,30.12,WNW,294,3.0,9.0,58,0.00,,---,0.00,VWS V14.01,2013-03-28 03:43:00,
2013-03-27 23:45:00,38.6,25.1,30.12,NW,312,3.0,9.0,58,0.00,,---,0.00,VWS V14.01,2013-03-28 03:45:00,
2013-03-27 23:48:00,38.6,25.1,30.11,NW,313,4.0,11.0,58,0.00,,---,0.00,VWS V14.01,2013-03-28 03:48:00,
2013-03-27 23:50:00,38.6,25.1,30.12,NW,313,2.0,11.0,58,0.00,,---,0.00,VWS V14.01,2013-03-28 03:50:00,
2013-03-27 23:53:00,38.6,25.1,30.12,WNW,288,3.0,6.0,58,0.00,,---,0.00,VWS V14.01,2013-03-28 03:53:00,
2013-03-27 23:55:00,38.5,25.0,30.11,NNW,338,2.0,6.0,58,0.00,,---,0.00,VWS V14.01,2013-03-28 03:55:00,
2013-03-27 23:58:00,38.5,25.4,30.11,NW,323,5.0,5.0,59,0.00,,---,0.00,VWS V14.01,2013-03-28 03:58:00,